METAR Data
IDs: Format: Raw Decoded Include TAF

Data at: 0117 UTC 06 Dec 2019

KMQY 060056Z 16003KT 10SM CLR 09/02 A3013 RMK AO2 SLP212 T00890017
KMQY 052356Z 00000KT 10SM CLR 09/02 A3012 RMK AO2 SLP208 60001 T00940017 10172 20089 53005
KMQY 052256Z 15003KT 10SM CLR 11/01 A3010 RMK AO2 SLP204 P0001 T01110011
KMQY 052156Z 16004KT 10SM CLR 15/01 A3010 RMK AO2 SLP203 T01500006
KMQY 052056Z 19004KT 10SM CLR 17/M01 A3010 RMK AO2 SLP202 T01671006 56014
KMQY 051956Z 18006KT 10SM CLR 17/00 A3010 RMK AO2 SLP202 T01720000
KMQY 051856Z 16005KT 10SM CLR 16/01 A3012 RMK AO2 SLP206 T01610006
KMQY 051756Z 16005KT 10SM CLR 15/01 A3014 RMK AO2 SLP215 60001 T01500006 10150 21022 58012
KMQY 051656Z 17005KT 10SM CLR 13/02 A3016 RMK AO2 SLP224 T01280017
KMQY 051556Z VRB03KT 10SM CLR 11/02 A3018 RMK AO2 SLP229 T01060022
KMQY 051456Z 00000KT 10SM CLR 06/02 A3018 RMK AO2 SLP229 60001 T00610017 51024
KMQY 051356Z 13003KT 10SM CLR 04/02 A3015 RMK AO2 SLP221 T00390017
KMQY 051256Z 00000KT 10SM CLR M02/M03 A3014 RMK AO2 SLP217 P0001 T10221033
KMQY 051156Z AUTO 00000KT 10SM CLR M02/M03 A3011 RMK AO2 SLP205 70002 T10171028 10011 21017 53009
KMQY 051056Z AUTO 13003KT 10SM CLR M01/M02 A3009 RMK AO2 SLP201 T10111022
KMQY 050956Z AUTO 00000KT 10SM CLR M02/M03 A3008 RMK AO2 SLP196 T10171028
KMQY 050856Z AUTO 00000KT 10SM CLR M02/M02 A3008 RMK AO2 SLP195 T10171022 51013
KMQY 050756Z AUTO 00000KT 10SM CLR M01/M02 A3006 RMK AO2 SLP190 T10111022
KMQY 050656Z AUTO 00000KT 10SM CLR 00/M01 A3006 RMK AO2 SLP188 T00001011
KMQY 050556Z AUTO 00000KT 10SM CLR 01/M01 A3004 RMK AO2 SLP182 60001 T00111011 10083 20006 401561033 51011
KMQY 050456Z AUTO 00000KT 10SM CLR 01/M01 A3003 RMK AO2 SLP179 T00061006
KMQY 050356Z AUTO 00000KT 10SM CLR 03/00 A3002 RMK AO2 SLP174 T00330000
KMQY 050256Z 00000KT 10SM CLR 03/M01 A3001 RMK AO2 SLP171 60001 T00331006 53013
KMQY 050156Z 26004KT 10SM CLR 04/M01 A2999 RMK AO2 SLP164 P0001 T00441006
KMQY 050056Z 00000KT 10SM CLR 07/M01 A2998 RMK AO2 SLP164 T00671011
KMQY 042356Z 26004KT 10SM CLR 08/M02 A2997 RMK AO2 SLP158 60001 T00831017 10156 20083 53018
KMQY 042256Z 26007KT 10SM CLR 11/M02 A2995 RMK AO2 SLP151 T01061017
KMQY 042156Z 28008KT 10SM CLR 13/M02 A2993 RMK AO2 SLP145 T01331022
KMQY 042056Z 28009KT 10SM CLR 15/M02 A2991 RMK AO2 SLP139 60001 T01501017 55002
KMQY 041956Z 27009KT 10SM CLR 15/M01 A2990 RMK AO2 SLP134 P0001 T01501011
KMQY 041856Z 27008KT 10SM CLR 14/M02 A2991 RMK AO2 SLP137 T01441017
KMQY 041756Z 29011KT 10SM CLR 13/M02 A2992 RMK AO2 SLP141 T01331017 10133 21028 58006
KMQY 041656Z 28007KT 10SM CLR 12/M01 A2994 RMK AO2 SLP148 T01171006
KMQY 041556Z 25007KT 10SM CLR 09/02 A2995 RMK AO2 SLP152 T00940017
KMQY 041456Z 16003KT 10SM CLR 07/03 A2994 RMK AO2 SLP149 T00670028 53013
KMQY 041356Z 14004KT 10SM CLR 02/00 A2992 RMK AO2 SLP144 T00170000